createdAt,value
2022-08-04T00:00:54.385Z,983.3
2022-08-04T00:02:56.106Z,983.3
2022-08-04T00:04:57.928Z,983.3
2022-08-04T00:06:59.248Z,983.3
2022-08-04T00:09:00.971Z,983.4
2022-08-04T00:11:02.364Z,983.4
2022-08-04T00:13:03.376Z,983.3
2022-08-04T00:15:05.227Z,983.4
2022-08-04T00:17:06.329Z,983.3
2022-08-04T00:19:07.961Z,983.3
2022-08-04T00:21:09.084Z,983.4
2022-08-04T00:23:09.960Z,983.3
2022-08-04T00:25:11.207Z,983.4
2022-08-04T00:27:12.751Z,983.4
2022-08-04T00:29:13.943Z,983.3
2022-08-04T00:31:15.968Z,983.4
2022-08-04T00:33:17.174Z,983.4
2022-08-04T00:35:18.971Z,983.3
2022-08-04T00:37:20.888Z,983.3
2022-08-04T00:39:22.500Z,983.4
2022-08-04T00:41:23.487Z,983.3
2022-08-04T00:45:26.410Z,983.3
2022-08-04T00:47:28.271Z,983.4
2022-08-04T00:49:29.198Z,983.3
2022-08-04T00:51:30.292Z,983.3
2022-08-04T00:55:33.675Z,983.3
2022-08-04T00:57:34.984Z,983.2
2022-08-04T00:59:36.025Z,983.2
2022-08-04T01:01:37.620Z,983.3
2022-08-04T01:03:38.700Z,983.3
2022-08-04T01:05:40.040Z,983.3
2022-08-04T01:07:41.740Z,983.3
2022-08-04T01:09:42.981Z,983.3
2022-08-04T01:11:57.224Z,983.2
2022-08-04T01:13:45.306Z,983.3
2022-08-04T01:15:53.971Z,983.3
2022-08-04T01:17:47.491Z,983.3
2022-08-04T01:19:49.179Z,983.3
2022-08-04T01:21:50.856Z,983.3
2022-08-04T01:23:52.461Z,983.3
2022-08-04T01:25:53.556Z,983.3
2022-08-04T01:27:55.134Z,983.3
2022-08-04T01:29:56.023Z,983.2
2022-08-04T01:31:57.747Z,983.3
2022-08-04T01:34:03.505Z,983.2
2022-08-04T01:36:00.443Z,983.2
2022-08-04T01:38:01.692Z,983.2
2022-08-04T01:40:02.961Z,983.2
2022-08-04T01:42:04.122Z,983.2
2022-08-04T01:44:05.085Z,983.2
2022-08-04T01:46:07.030Z,983.2
2022-08-04T01:48:07.874Z,983.1
2022-08-04T01:50:09.487Z,983.2
2022-08-04T01:52:11.151Z,983.1
2022-08-04T01:54:12.266Z,983.2
2022-08-04T01:56:13.835Z,983.2
2022-08-04T01:58:15.032Z,983.2
2022-08-04T02:00:16.034Z,983.2
2022-08-04T02:02:17.593Z,983.2
2022-08-04T02:04:23.026Z,983.1
2022-08-04T02:08:21.642Z,983
2022-08-04T02:14:26.237Z,983.1
2022-08-04T02:16:28.038Z,983.1
2022-08-04T02:18:29.473Z,983
2022-08-04T02:20:31.021Z,983.1
2022-08-04T02:22:31.951Z,983.1
2022-08-04T02:24:33.694Z,983.1
2022-08-04T02:26:34.732Z,983.1
2022-08-04T02:28:35.985Z,983.1
2022-08-04T02:30:37.345Z,983.1
2022-08-04T02:32:38.419Z,983.1
2022-08-04T02:36:41.202Z,983
2022-08-04T02:38:42.325Z,983
2022-08-04T02:40:43.374Z,983
2022-08-04T02:42:45.232Z,982.9
2022-08-04T02:44:46.910Z,982.9
2022-08-04T02:46:47.904Z,982.9
2022-08-04T02:48:49.504Z,982.9
2022-08-04T02:50:52.101Z,982.9
2022-08-04T02:52:52.884Z,982.9
2022-08-04T02:54:54.141Z,983
2022-08-04T02:56:55.963Z,982.9
2022-08-04T02:58:56.916Z,982.9
2022-08-04T03:00:58.616Z,982.9
2022-08-04T03:03:00.032Z,982.9
2022-08-04T03:05:01.492Z,982.9
2022-08-04T03:07:46.847Z,982.9
2022-08-04T03:09:47.698Z,982.9
2022-08-04T03:11:49.164Z,982.9
2022-08-04T03:13:50.540Z,982.9
2022-08-04T03:15:51.631Z,982.8
2022-08-04T03:17:53.641Z,982.8
2022-08-04T03:19:54.556Z,982.8
2022-08-04T03:21:55.911Z,982.8
2022-08-04T03:23:57.418Z,982.9
2022-08-04T03:25:58.629Z,982.9
2022-08-04T03:30:00.796Z,983
2022-08-04T03:32:02.030Z,982.9
2022-08-04T03:34:03.675Z,983
2022-08-04T03:36:05.584Z,982.9
2022-08-04T03:38:06.588Z,982.9
2022-08-04T03:40:08.850Z,983
2022-08-04T03:42:17.015Z,983
2022-08-04T03:44:10.879Z,983
2022-08-04T03:46:11.933Z,983
2022-08-04T03:48:13.274Z,983
2022-08-04T03:50:15.013Z,982.9
2022-08-04T03:52:16.294Z,982.9
2022-08-04T03:54:17.307Z,982.8
2022-08-04T03:56:18.335Z,983
2022-08-04T03:58:19.426Z,983
2022-08-04T04:00:20.350Z,983
2022-08-04T04:02:21.780Z,983
2022-08-04T04:04:23.018Z,983
2022-08-04T04:06:24.621Z,982.9
2022-08-04T04:08:25.833Z,983
2022-08-04T04:10:28.800Z,982.9
2022-08-04T04:12:29.183Z,983
2022-08-04T04:14:30.079Z,983.1
2022-08-04T04:16:31.162Z,983
2022-08-04T04:18:32.539Z,983
2022-08-04T04:20:34.107Z,983
2022-08-04T04:22:38.276Z,983
2022-08-04T04:24:36.180Z,983
2022-08-04T04:26:37.226Z,983
2022-08-04T04:28:43.888Z,983
2022-08-04T04:30:39.235Z,983
2022-08-04T04:32:40.869Z,983
2022-08-04T04:34:45.974Z,983
2022-08-04T04:36:43.782Z,983
2022-08-04T04:38:45.435Z,983
2022-08-04T04:40:47.290Z,983
2022-08-04T04:42:49.040Z,982.9
2022-08-04T04:44:49.950Z,983.1
2022-08-04T04:46:50.867Z,983.1
2022-08-04T04:48:51.805Z,983.1
2022-08-04T04:50:53.036Z,983.2
2022-08-04T04:52:54.282Z,983
2022-08-04T04:54:55.360Z,983
2022-08-04T04:56:57.017Z,983.1
2022-08-04T04:58:58.182Z,983.1
2022-08-04T05:03:02.375Z,983.1
2022-08-04T05:05:02.692Z,983
2022-08-04T05:07:04.069Z,982.9
2022-08-04T05:11:07.279Z,983.1
2022-08-04T05:14:34.283Z,983
2022-08-04T05:15:09.444Z,983
2022-08-04T05:17:10.694Z,983
2022-08-04T05:19:11.870Z,983.1
2022-08-04T05:21:13.431Z,983.1
2022-08-04T05:23:14.894Z,983
2022-08-04T05:25:16.216Z,983
2022-08-04T05:27:17.680Z,983
2022-08-04T05:29:19.489Z,983.1
2022-08-04T05:31:20.777Z,983
2022-08-04T05:33:23.923Z,983.1
2022-08-04T05:35:37.568Z,983
2022-08-04T05:37:25.215Z,983
2022-08-04T05:39:29.915Z,983
2022-08-04T05:41:32.218Z,983.1
2022-08-04T05:43:29.423Z,983.1
2022-08-04T05:45:38.950Z,983.1
2022-08-04T05:47:31.573Z,983.1
2022-08-04T05:49:33.334Z,983.1
2022-08-04T05:51:34.570Z,983
2022-08-04T05:53:36.336Z,983.1
2022-08-04T05:55:48.538Z,983.1
2022-08-04T05:57:39.306Z,983.1
2022-08-04T05:59:40.973Z,983.1
2022-08-04T06:01:55.267Z,983.1
2022-08-04T06:03:44.066Z,983.1
2022-08-04T06:05:45.368Z,983
2022-08-04T06:09:48.470Z,983
2022-08-04T06:12:00.343Z,982.9
2022-08-04T06:13:51.445Z,983
2022-08-04T06:15:52.628Z,983.1
2022-08-04T06:18:32.558Z,983.1
2022-08-04T06:19:58.258Z,983.1
2022-08-04T06:21:57.070Z,983.1
2022-08-04T06:24:02.571Z,983
2022-08-04T06:25:59.525Z,983.1
2022-08-04T06:28:00.512Z,983.1
2022-08-04T06:30:01.642Z,983.2
2022-08-04T06:32:26.391Z,983.1
2022-08-04T06:34:04.368Z,983.2
2022-08-04T06:36:05.638Z,983.2
2022-08-04T06:38:06.589Z,983.2
2022-08-04T06:40:30.291Z,983.2
2022-08-04T06:42:22.333Z,983.1
2022-08-04T06:46:10.944Z,983.2
2022-08-04T06:48:12.598Z,983.1
2022-08-04T06:51:28.921Z,983.1
2022-08-04T06:52:14.877Z,983.1
2022-08-04T06:54:16.297Z,983.1
2022-08-04T06:56:17.114Z,983.2
2022-08-04T06:58:18.665Z,983.2
2022-08-04T07:00:19.670Z,983.1
2022-08-04T07:02:21.405Z,983.1
2022-08-04T07:04:22.705Z,983.2
2022-08-04T07:06:24.392Z,983.1
2022-08-04T07:08:25.195Z,983.1
2022-08-04T07:10:26.198Z,983
2022-08-04T07:12:27.108Z,983
2022-08-04T07:14:28.263Z,983
2022-08-04T07:16:29.738Z,983.1
2022-08-04T07:18:30.637Z,983.1
2022-08-04T07:20:33.909Z,983
2022-08-04T07:22:33.121Z,983.1
2022-08-04T07:24:34.563Z,983
2022-08-04T07:26:36.050Z,983
2022-08-04T07:28:37.006Z,983
2022-08-04T07:30:37.923Z,982.9
2022-08-04T07:32:39.440Z,983
2022-08-04T07:34:40.948Z,982.9
2022-08-04T07:36:50.157Z,982.9
2022-08-04T07:38:46.297Z,982.9
2022-08-04T07:40:44.470Z,983
2022-08-04T07:42:46.183Z,983
2022-08-04T07:44:47.895Z,983
2022-08-04T07:46:48.733Z,983
2022-08-04T07:48:50.045Z,983
2022-08-04T07:50:50.889Z,983
2022-08-04T07:53:09.186Z,983
2022-08-04T07:54:52.866Z,983
2022-08-04T07:56:53.973Z,982.9
2022-08-04T07:58:55.353Z,983
2022-08-04T08:00:56.644Z,982.9
2022-08-04T08:07:00.662Z,982.9
2022-08-04T08:09:12.828Z,982.8
2022-08-04T08:11:02.995Z,982.8
2022-08-04T08:13:03.835Z,982.9
2022-08-04T08:15:05.065Z,982.8
2022-08-04T08:17:06.461Z,982.8
2022-08-04T08:23:09.812Z,982.9
2022-08-04T08:25:10.550Z,982.8
2022-08-04T08:27:11.464Z,982.9
2022-08-04T08:29:12.861Z,982.8
2022-08-04T08:31:14.283Z,982.8
2022-08-04T08:33:15.032Z,982.8
2022-08-04T08:35:15.772Z,982.8
2022-08-04T08:37:17.350Z,982.8
2022-08-04T08:39:21.605Z,982.8
2022-08-04T08:41:19.471Z,982.8
2022-08-04T08:44:00.150Z,982.8
2022-08-04T08:45:22.130Z,982.7
2022-08-04T08:47:23.681Z,982.8
2022-08-04T08:50:01.335Z,982.9
2022-08-04T08:51:26.612Z,982.8
2022-08-04T08:53:27.368Z,982.8
2022-08-04T08:55:28.754Z,982.7
2022-08-04T08:57:29.979Z,982.8
2022-08-04T08:59:30.909Z,982.8
2022-08-04T09:01:31.947Z,982.8
2022-08-04T09:03:33.077Z,982.8
2022-08-04T09:05:33.805Z,982.8
2022-08-04T09:07:35.156Z,982.8
2022-08-04T09:09:36.878Z,982.8
2022-08-04T09:11:38.523Z,982.8
2022-08-04T09:13:39.528Z,982.8
2022-08-04T09:15:40.727Z,982.8
2022-08-04T09:17:42.204Z,982.7
2022-08-04T09:21:44.709Z,982.7
2022-08-04T09:23:46.013Z,982.6
2022-08-04T09:25:47.704Z,982.6
2022-08-04T09:27:49.238Z,982.7
2022-08-04T09:29:50.879Z,982.6
2022-08-04T09:32:04.870Z,982.6
2022-08-04T09:33:53.682Z,982.6
2022-08-04T09:35:54.543Z,982.7
2022-08-04T09:37:55.562Z,982.7
2022-08-04T09:39:56.938Z,982.7
2022-08-04T09:41:59.481Z,982.7
2022-08-04T09:44:43.365Z,982.7
2022-08-04T09:46:01.656Z,982.6
2022-08-04T09:48:02.654Z,982.6
2022-08-04T09:50:03.993Z,982.6
2022-08-04T09:52:05.710Z,982.6
2022-08-04T09:52:49.426Z,982.6
2022-08-04T09:54:51.085Z,982.6
2022-08-04T09:56:51.716Z,982.6
2022-08-04T09:58:52.645Z,982.6
2022-08-04T10:00:54.306Z,982.6
2022-08-04T10:02:56.030Z,982.6
2022-08-04T10:04:57.055Z,982.6
2022-08-04T10:06:58.202Z,982.6
2022-08-04T10:08:59.225Z,982.5
2022-08-04T10:10:59.956Z,982.5
2022-08-04T10:13:01.391Z,982.5
2022-08-04T10:15:02.720Z,982.4
2022-08-04T10:17:03.756Z,982.4
2022-08-04T10:19:08.122Z,982.4
2022-08-04T10:21:10.362Z,982.3
2022-08-04T10:23:11.293Z,982.3
2022-08-04T10:25:37.759Z,982.3
2022-08-04T10:27:10.123Z,982.4
2022-08-04T10:29:11.037Z,982.4
2022-08-04T10:31:12.404Z,982.3
2022-08-04T10:33:13.130Z,982.3
2022-08-04T10:35:14.796Z,982.2
2022-08-04T10:37:16.293Z,982.3
2022-08-04T10:41:19.683Z,982.3
2022-08-04T10:43:22.717Z,982.1
2022-08-04T10:45:21.984Z,982.2
2022-08-04T10:47:23.261Z,982.3
2022-08-04T10:49:24.444Z,982.2
2022-08-04T10:51:25.863Z,982.2
2022-08-04T10:53:26.701Z,982.1
2022-08-04T10:57:28.910Z,982.1
2022-08-04T10:59:29.619Z,982
2022-08-04T11:01:51.221Z,982.1
2022-08-04T11:03:32.590Z,982.1
2022-08-04T11:05:33.623Z,982.1
2022-08-04T11:07:35.299Z,982.1
2022-08-04T11:09:36.981Z,982.1
2022-08-04T11:11:57.294Z,982
2022-08-04T11:13:40.946Z,981.9
2022-08-04T11:15:40.208Z,982
2022-08-04T11:17:41.699Z,982.1
2022-08-04T11:19:45.438Z,982
2022-08-04T11:21:43.863Z,982
2022-08-04T11:23:45.469Z,982
2022-08-04T11:25:51.210Z,982
2022-08-04T11:27:47.378Z,982.1
2022-08-04T11:29:48.893Z,982.1
2022-08-04T11:31:51.966Z,982.1
2022-08-04T11:33:50.842Z,982.1
2022-08-04T11:35:52.204Z,982.1
2022-08-04T11:37:53.786Z,982.1
2022-08-04T11:39:54.768Z,982.1
2022-08-04T11:41:55.896Z,982.1
2022-08-04T11:44:01.523Z,982.1
2022-08-04T11:45:57.637Z,982.1
2022-08-04T11:47:58.699Z,982.1
2022-08-04T11:49:59.903Z,982
2022-08-04T11:52:01.509Z,982
2022-08-04T11:54:02.596Z,982.1
2022-08-04T11:56:08.461Z,982.1
2022-08-04T11:58:05.265Z,982
2022-08-04T12:00:07.372Z,982
2022-08-04T12:02:07.384Z,982
2022-08-04T12:04:08.972Z,982
2022-08-04T12:06:10.354Z,982
2022-08-04T12:08:11.295Z,981.9
2022-08-04T12:10:12.591Z,981.9
2022-08-04T12:14:15.571Z,981.9
2022-08-04T12:16:16.430Z,981.9
2022-08-04T12:18:17.356Z,981.9
2022-08-04T12:20:30.091Z,981.9
2022-08-04T12:22:20.412Z,981.8
2022-08-04T12:24:20.862Z,982
2022-08-04T12:26:22.214Z,982
2022-08-04T12:28:23.537Z,981.9
2022-08-04T12:30:54.477Z,981.9
2022-08-04T12:32:25.872Z,981.9
2022-08-04T12:34:29.665Z,981.9
2022-08-04T12:36:28.387Z,981.8
2022-08-04T12:38:29.517Z,981.8
2022-08-04T12:40:31.079Z,981.8
2022-08-04T12:42:31.791Z,981.8
2022-08-04T12:44:33.483Z,981.7
2022-08-04T12:46:33.536Z,981.8
2022-08-04T12:48:35.047Z,981.8
2022-08-04T12:50:36.754Z,981.7
2022-08-04T12:53:00.818Z,981.7
2022-08-04T12:54:39.159Z,981.7
2022-08-04T12:56:40.014Z,981.7
2022-08-04T12:58:41.787Z,981.7
2022-08-04T13:00:42.788Z,981.7
2022-08-04T13:04:50.338Z,981.6
2022-08-04T13:06:46.170Z,981.7
2022-08-04T13:08:46.978Z,981.6
2022-08-04T13:10:48.261Z,981.6
2022-08-04T13:12:49.517Z,981.6
2022-08-04T13:14:50.419Z,981.6
2022-08-04T13:16:51.477Z,981.5
2022-08-04T13:18:52.243Z,981.5
2022-08-04T13:20:53.375Z,981.5
2022-08-04T13:22:54.805Z,981.5
2022-08-04T13:24:57.226Z,981.5
2022-08-04T13:26:57.525Z,981.5
2022-08-04T13:28:58.536Z,981.5
2022-08-04T13:30:59.644Z,981.5
2022-08-04T13:35:02.499Z,981.4
2022-08-04T13:37:03.534Z,981.4
2022-08-04T13:39:05.129Z,981.5
2022-08-04T13:41:06.164Z,981.4
2022-08-04T13:43:07.752Z,981.5
2022-08-04T13:45:08.895Z,981.4
2022-08-04T13:47:14.237Z,981.3
2022-08-04T13:49:54.371Z,981.3
2022-08-04T13:51:12.710Z,981.3
2022-08-04T13:53:14.295Z,981.3
2022-08-04T13:55:15.197Z,981.3
2022-08-04T13:57:16.675Z,981.3
2022-08-04T13:59:17.840Z,981.2
2022-08-04T14:01:19.364Z,981.2
2022-08-04T14:03:24.055Z,981.3
2022-08-04T14:05:24.269Z,981.3
2022-08-04T14:07:22.705Z,981.3
2022-08-04T14:09:23.682Z,981.2
2022-08-04T14:12:07.380Z,981.2
2022-08-04T14:13:26.078Z,981.2
2022-08-04T14:15:26.995Z,981.2
2022-08-04T14:17:30.168Z,981.2
2022-08-04T14:19:35.978Z,981.3
2022-08-04T14:21:30.771Z,981.1
2022-08-04T14:23:33.222Z,981.1
2022-08-04T14:25:35.295Z,981.1
2022-08-04T14:27:33.564Z,981
2022-08-04T14:29:35.260Z,981
2022-08-04T14:31:36.114Z,981.1
2022-08-04T14:34:00.883Z,981.1
2022-08-04T14:35:45.550Z,981.1
2022-08-04T14:37:48.306Z,981
2022-08-04T14:39:41.392Z,981
2022-08-04T14:41:42.733Z,981.1
2022-08-04T14:43:43.655Z,981
2022-08-04T14:45:54.534Z,981.1
2022-08-04T14:47:51.709Z,981.1
2022-08-04T14:49:48.059Z,981
2022-08-04T14:51:49.132Z,981
2022-08-04T14:53:50.164Z,981.1
2022-08-04T14:55:51.460Z,981
2022-08-04T14:58:33.119Z,981
2022-08-04T15:02:00.773Z,981
2022-08-04T15:03:56.066Z,981
2022-08-04T15:06:04.131Z,981
2022-08-04T15:07:58.954Z,981
2022-08-04T15:09:59.800Z,981
2022-08-04T15:12:00.622Z,980.9
2022-08-04T15:14:01.392Z,981
2022-08-04T15:18:03.542Z,980.9
2022-08-04T15:20:04.685Z,980.8
2022-08-04T15:22:06.018Z,980.9
2022-08-04T15:24:07.329Z,980.8
2022-08-04T15:26:08.445Z,980.9
2022-08-04T15:28:09.471Z,980.9
2022-08-04T15:30:11.091Z,980.9
2022-08-04T15:32:12.753Z,980.8
2022-08-04T15:34:13.786Z,980.8
2022-08-04T15:36:14.735Z,980.8
2022-08-04T15:38:15.688Z,980.9
2022-08-04T15:40:16.823Z,980.8
2022-08-04T15:44:19.985Z,980.8
2022-08-04T15:46:42.171Z,980.7
2022-08-04T15:48:22.862Z,980.7
2022-08-04T15:50:28.041Z,980.7
2022-08-04T15:52:25.478Z,980.9
2022-08-04T15:54:27.620Z,980.7
2022-08-04T15:56:27.328Z,980.7
2022-08-04T15:58:29.013Z,980.8
2022-08-04T16:00:30.120Z,980.7
2022-08-04T16:02:31.309Z,980.7
2022-08-04T16:04:32.744Z,980.7
2022-08-04T16:06:33.479Z,980.7
2022-08-04T16:08:34.510Z,980.7
2022-08-04T16:10:36.098Z,980.6
2022-08-04T16:12:53.110Z,980.7
2022-08-04T16:14:37.847Z,980.7
2022-08-04T16:16:39.180Z,980.6
2022-08-04T16:18:40.618Z,980.6
2022-08-04T16:20:41.411Z,980.6
2022-08-04T16:22:42.379Z,980.7
2022-08-04T16:24:43.127Z,980.6
2022-08-04T16:26:45.495Z,980.6
2022-08-04T16:28:44.989Z,980.6
2022-08-04T16:30:46.175Z,980.7
2022-08-04T16:32:47.043Z,980.6
2022-08-04T16:34:53.696Z,980.6
2022-08-04T16:36:49.052Z,980.5
2022-08-04T16:37:32.664Z,980.6
2022-08-04T16:39:34.275Z,980.5
2022-08-04T16:41:35.853Z,980.5
2022-08-04T16:43:37.317Z,980.5
2022-08-04T16:45:38.233Z,980.5
2022-08-04T16:47:39.215Z,980.4
2022-08-04T16:49:49.368Z,980.5
2022-08-04T16:51:41.008Z,980.5
2022-08-04T16:53:51.862Z,980.5
2022-08-04T16:55:44.289Z,980.6
2022-08-04T16:57:45.517Z,980.5
2022-08-04T16:59:47.163Z,980.4
2022-08-04T17:01:48.979Z,980.4
2022-08-04T17:03:54.747Z,980.5
2022-08-04T17:05:51.945Z,980.4
2022-08-04T17:08:07.381Z,980.4
2022-08-04T17:09:55.102Z,980.4
2022-08-04T17:11:55.868Z,980.4
2022-08-04T17:14:01.544Z,980.4
2022-08-04T17:15:58.169Z,980.4
2022-08-04T17:18:06.212Z,980.4
2022-08-04T17:20:00.167Z,980.4
2022-08-04T17:22:04.093Z,980.3
2022-08-04T17:24:13.935Z,980.3
2022-08-04T17:26:03.868Z,980.3
2022-08-04T17:28:05.903Z,980.3
2022-08-04T17:30:05.707Z,980.3
2022-08-04T17:32:06.736Z,980.3
2022-08-04T17:34:09.884Z,980.2
2022-08-04T17:36:09.451Z,980.3
2022-08-04T17:38:10.647Z,980.3
2022-08-04T17:40:11.946Z,980.2
2022-08-04T17:42:13.593Z,980.3
2022-08-04T17:44:14.984Z,980.3
2022-08-04T17:46:16.183Z,980.2
2022-08-04T17:48:24.332Z,980.3
2022-08-04T17:50:18.783Z,980.3
2022-08-04T17:52:31.245Z,980.2
2022-08-04T17:56:23.030Z,980.3
2022-08-04T17:58:24.205Z,980.3
2022-08-04T18:00:25.820Z,980.3
2022-08-04T18:02:32.018Z,980.2
2022-08-04T18:04:28.790Z,980.3
2022-08-04T18:06:30.064Z,980.2
2022-08-04T18:08:36.137Z,980.2
2022-08-04T18:10:34.938Z,980.3
2022-08-04T18:12:33.531Z,980.3
2022-08-04T18:14:35.180Z,980.2
2022-08-04T18:16:36.854Z,980.3
2022-08-04T18:18:38.613Z,980.2
2022-08-04T18:20:39.360Z,980.3
2022-08-04T18:22:40.372Z,980.3
2022-08-04T18:24:55.238Z,980.4
2022-08-04T18:26:42.613Z,980.3
2022-08-04T18:28:44.384Z,980.4
2022-08-04T18:30:55.087Z,980.4
2022-08-04T18:33:10.309Z,980.3
2022-08-04T18:34:54.483Z,980.4
2022-08-04T18:38:54.620Z,980.3
2022-08-04T18:40:53.369Z,980.4
2022-08-04T18:42:52.241Z,980.5
2022-08-04T18:44:53.648Z,980.5
2022-08-04T18:46:55.830Z,980.4
2022-08-04T18:48:55.998Z,980.5
2022-08-04T18:51:01.387Z,980.5
2022-08-04T18:52:58.190Z,980.5
2022-08-04T18:55:01.538Z,980.6
2022-08-04T18:59:01.823Z,980.6
2022-08-04T19:01:03.176Z,980.6
2022-08-04T19:03:04.008Z,980.6
2022-08-04T19:05:05.485Z,980.6
2022-08-04T19:07:23.762Z,980.5
2022-08-04T19:09:08.604Z,980.5
2022-08-04T19:11:16.903Z,980.5
2022-08-04T19:13:18.587Z,980.6
2022-08-04T19:17:13.844Z,980.6
2022-08-04T19:19:14.856Z,980.7
2022-08-04T19:21:16.417Z,980.7
2022-08-04T19:24:12.196Z,980.7
2022-08-04T19:25:58.582Z,980.7
2022-08-04T19:27:20.153Z,980.7
2022-08-04T19:29:21.864Z,980.8
2022-08-04T19:33:25.183Z,980.8
2022-08-04T19:35:25.514Z,980.8
2022-08-04T19:37:56.609Z,980.9
2022-08-04T19:39:27.884Z,980.8
2022-08-04T19:41:28.811Z,980.9
2022-08-04T19:43:30.402Z,980.9
2022-08-04T19:45:42.090Z,980.9
2022-08-04T19:48:11.961Z,980.8
2022-08-04T19:50:03.577Z,980.8
2022-08-04T19:51:34.833Z,980.9
2022-08-04T19:53:37.234Z,980.9
2022-08-04T19:55:38.290Z,981
2022-08-04T19:57:38.707Z,980.9
2022-08-04T19:59:48.143Z,981
2022-08-04T20:01:45.009Z,980.9
2022-08-04T20:04:08.615Z,980.9
2022-08-04T20:05:54.680Z,981
2022-08-04T20:07:44.410Z,981
2022-08-04T20:09:53.499Z,981
2022-08-04T20:11:46.694Z,981
2022-08-04T20:13:53.451Z,981
2022-08-04T20:15:50.463Z,980.9
2022-08-04T20:18:07.274Z,980.9
2022-08-04T20:19:51.814Z,981
2022-08-04T20:21:54.514Z,981
2022-08-04T20:23:54.419Z,981
2022-08-04T20:25:55.897Z,981
2022-08-04T20:27:59.702Z,981
2022-08-04T20:29:57.852Z,981
2022-08-04T20:32:05.298Z,981.1
2022-08-04T20:34:00.636Z,980.9
2022-08-04T20:36:03.653Z,981
2022-08-04T20:38:02.968Z,981
2022-08-04T20:40:05.122Z,981.1
2022-08-04T20:42:05.930Z,981.1
2022-08-04T20:44:10.626Z,981
2022-08-04T20:46:17.679Z,981
2022-08-04T20:48:10.576Z,980.9
2022-08-04T20:50:11.705Z,981
2022-08-04T20:52:18.205Z,981
2022-08-04T20:54:16.417Z,980.9
2022-08-04T20:56:18.986Z,980.9
2022-08-04T20:58:17.476Z,980.8
2022-08-04T21:00:26.640Z,981
2022-08-04T21:02:20.449Z,980.9
2022-08-04T21:04:27.603Z,980.9
2022-08-04T21:06:23.811Z,980.8
2022-08-04T21:08:27.147Z,980.9
2022-08-04T21:10:26.396Z,980.9
2022-08-04T21:14:28.953Z,980.9
2022-08-04T21:16:54.323Z,980.9
2022-08-04T21:18:30.933Z,980.8
2022-08-04T21:20:33.345Z,980.9
2022-08-04T21:22:33.623Z,980.9
2022-08-04T21:24:34.902Z,980.9
2022-08-04T21:26:35.879Z,980.9
2022-08-04T21:28:36.750Z,980.9
2022-08-04T21:30:53.028Z,980.9
2022-08-04T21:32:39.947Z,980.9
2022-08-04T21:34:41.330Z,980.8
2022-08-04T21:36:42.487Z,980.9
2022-08-04T21:38:50.941Z,980.9
2022-08-04T21:40:44.612Z,980.9
2022-08-04T21:42:50.040Z,981
2022-08-04T21:44:47.484Z,980.9
2022-08-04T21:46:49.138Z,980.9
2022-08-04T21:48:50.074Z,980.9
2022-08-04T21:50:51.066Z,980.9
2022-08-04T21:52:52.646Z,980.9
2022-08-04T21:54:54.926Z,980.9
2022-08-04T21:56:55.902Z,980.8
2022-08-04T21:58:57.939Z,980.9
2022-08-04T22:00:58.544Z,980.9
2022-08-04T22:02:59.759Z,980.8
2022-08-04T22:05:00.869Z,980.8
2022-08-04T22:07:02.829Z,980.8
2022-08-04T22:09:03.217Z,980.8
2022-08-04T22:11:04.256Z,980.8
2022-08-04T22:13:06.789Z,980.8
2022-08-04T22:15:22.660Z,980.8
2022-08-04T22:17:13.480Z,980.8
2022-08-04T22:19:10.809Z,980.8
2022-08-04T22:21:12.078Z,980.8
2022-08-04T22:23:15.642Z,980.8
2022-08-04T22:27:14.861Z,980.8
2022-08-04T22:29:16.629Z,980.8
2022-08-04T22:33:19.437Z,980.8
2022-08-04T22:35:33.242Z,980.9
2022-08-04T22:37:28.573Z,980.8
2022-08-04T22:39:27.558Z,980.8
2022-08-04T22:41:34.073Z,980.8
2022-08-04T22:43:31.591Z,980.9
2022-08-04T22:45:28.692Z,980.9
2022-08-04T22:47:28.654Z,980.7
2022-08-04T22:49:31.631Z,980.8
2022-08-04T22:51:30.804Z,980.8
2022-08-04T22:53:32.514Z,980.8
2022-08-04T22:55:57.799Z,980.8
2022-08-04T22:57:43.191Z,980.8
2022-08-04T22:59:39.932Z,980.8
2022-08-04T23:01:58.176Z,980.7
2022-08-04T23:03:39.062Z,980.7
2022-08-04T23:05:40.017Z,980.8
2022-08-04T23:07:47.188Z,980.7
2022-08-04T23:09:48.949Z,980.8
2022-08-04T23:11:44.647Z,980.7
2022-08-04T23:13:45.448Z,980.8
2022-08-04T23:15:46.852Z,980.6
2022-08-04T23:17:48.111Z,980.6
2022-08-04T23:19:57.578Z,980.7
2022-08-04T23:22:01.018Z,980.6
2022-08-04T23:22:37.307Z,980.6
2022-08-04T23:26:38.058Z,980.7
2022-08-04T23:28:39.805Z,980.6
2022-08-04T23:30:40.721Z,980.6
2022-08-04T23:32:42.492Z,980.6
2022-08-04T23:34:43.636Z,980.6
2022-08-04T23:36:45.479Z,980.6
2022-08-04T23:38:47.011Z,980.5
2022-08-04T23:40:50.193Z,980.5
2022-08-04T23:42:50.472Z,980.5
2022-08-04T23:44:52.227Z,980.4
2022-08-04T23:46:53.970Z,980.5
2022-08-04T23:48:55.380Z,980.5
2022-08-04T23:50:56.616Z,980.5
2022-08-04T23:52:58.313Z,980.5
2022-08-04T23:54:59.405Z,980.5
2022-08-04T23:57:00.876Z,980.5
2022-08-04T23:59:03.590Z,980.5
